Time;durP1;ratioP1;P1;durP2;ratioP2;P2;SDS_P1;SDS_P2;PMS_P1;PMS_P2;Temp;Humidity;BMP_temperature;BMP_pressure;BME280_temperature;BME280_humidity;BME280_pressure;Samples;Min_cycle;Max_cycle;Signal;HPM_P1;HPM_P2
2022/12/04 00:01:04;;;;;;;14.55;11.10;;;2.00;99.90;;;;;;5070328;28;20445;-71
2022/12/04 00:03:29;;;;;;;13.95;11.50;;;2.00;99.90;;;;;;5069596;28;20384;-71
2022/12/04 00:06:14;;;;;;;12.90;10.43;;;2.00;99.90;;;;;;5070215;28;20425;-71
2022/12/04 00:08:40;;;;;;;13.88;10.70;;;1.90;99.90;;;;;;5070294;28;20412;-70
2022/12/04 00:11:08;;;;;;;16.42;11.68;;;2.00;99.90;;;;;;5070103;28;20435;-70
2022/12/04 00:13:33;;;;;;;14.77;11.60;;;2.00;99.90;;;;;;5069427;28;20380;-71
2022/12/04 00:15:59;;;;;;;16.17;11.37;;;2.00;99.90;;;;;;5069822;28;20456;-71
2022/12/04 00:18:25;;;;;;;15.15;12.10;;;2.10;99.90;;;;;;5070229;28;20395;-70
2022/12/04 00:20:51;;;;;;;14.15;11.23;;;2.10;99.90;;;;;;5070006;28;21072;-71
2022/12/04 00:23:17;;;;;;;15.90;11.57;;;2.00;99.90;;;;;;5069384;28;20388;-71
2022/12/04 00:25:47;;;;;;;14.47;11.43;;;2.00;99.90;;;;;;5069650;28;20746;-71
2022/12/04 00:28:16;;;;;;;14.68;10.85;;;2.10;99.90;;;;;;5069988;28;20376;-71
2022/12/04 00:30:44;;;;;;;16.45;12.00;;;2.00;99.90;;;;;;5070119;28;20391;-71
2022/12/04 00:33:10;;;;;;;15.90;12.35;;;2.10;99.90;;;;;;5069083;28;20444;-71
2022/12/04 00:35:35;;;;;;;13.90;11.60;;;2.10;99.90;;;;;;5069061;28;20476;-70
2022/12/04 00:38:02;;;;;;;14.73;12.17;;;2.10;99.90;;;;;;5070031;28;20391;-71
2022/12/04 00:40:27;;;;;;;14.45;11.18;;;2.10;99.90;;;;;;5070059;28;20408;-71
2022/12/04 00:42:53;;;;;;;17.40;12.17;;;2.20;99.90;;;;;;5069184;28;20825;-71
2022/12/04 00:45:18;;;;;;;15.10;11.87;;;2.10;99.90;;;;;;5070001;28;20486;-71
2022/12/04 00:47:44;;;;;;;15.63;12.13;;;2.10;99.90;;;;;;5069872;28;20469;-71
2022/12/04 00:50:10;;;;;;;14.83;11.30;;;2.20;99.90;;;;;;5069932;28;20375;-71
2022/12/04 00:52:35;;;;;;;14.93;11.40;;;2.20;99.90;;;;;;5069087;28;20380;-71
2022/12/04 00:55:01;;;;;;;16.08;12.18;;;2.20;99.90;;;;;;5069976;28;20445;-71
2022/12/04 00:57:27;;;;;;;16.80;12.35;;;2.30;99.90;;;;;;5069788;28;20380;-71
2022/12/04 00:59:52;;;;;;;14.02;11.15;;;2.30;99.90;;;;;;5072889;28;20935;-71
2022/12/04 01:02:18;;;;;;;14.85;11.95;;;2.20;99.90;;;;;;5073006;28;20422;-71
2022/12/04 01:04:43;;;;;;;16.65;11.50;;;2.20;99.90;;;;;;5072410;28;20992;-71
2022/12/04 01:07:09;;;;;;;16.43;12.40;;;2.00;99.90;;;;;;5073110;28;20380;-71
2022/12/04 01:09:34;;;;;;;12.70;10.83;;;2.10;99.90;;;;;;5073133;28;20463;-71
2022/12/04 01:12:00;;;;;;;15.30;11.67;;;2.10;99.90;;;;;;5073082;28;20387;-71
2022/12/04 01:14:25;;;;;;;14.27;10.90;;;2.10;99.90;;;;;;5072057;28;20461;-71
2022/12/04 01:16:51;;;;;;;14.70;11.47;;;2.10;99.90;;;;;;5128866;22;20832;-69
2022/12/04 01:19:16;;;;;;;12.90;10.80;;;2.20;99.90;;;;;;5113482;28;20767;-69
2022/12/04 01:21:42;;;;;;;14.97;11.70;;;2.20;99.90;;;;;;5113460;28;20393;-70
2022/12/04 01:24:07;;;;;;;12.73;10.90;;;2.30;99.90;;;;;;5112705;28;20400;-70
2022/12/04 01:26:33;;;;;;;13.20;11.00;;;2.30;99.90;;;;;;5113377;28;20467;-70
2022/12/04 01:28:59;;;;;;;14.05;10.88;;;2.10;99.90;;;;;;5113623;28;20376;-70
2022/12/04 01:31:24;;;;;;;13.30;11.10;;;2.20;99.90;;;;;;5113298;28;20438;-70
2022/12/04 01:33:50;;;;;;;13.63;11.70;;;2.20;99.90;;;;;;5112294;28;20384;-70
2022/12/04 01:36:22;;;;;;;14.15;11.18;;;2.30;99.90;;;;;;5113215;28;20388;-70
2022/12/04 01:38:48;;;;;;;13.10;11.18;;;2.30;99.90;;;;;;5113202;28;20438;-70
2022/12/04 01:41:16;;;;;;;14.57;11.33;;;2.30;99.90;;;;;;5113009;28;20476;-70
2022/12/04 01:43:42;;;;;;;14.63;10.90;;;2.30;99.90;;;;;;5112304;28;20380;-70
2022/12/04 01:46:09;;;;;;;13.10;11.03;;;2.30;99.90;;;;;;5112884;28;20383;-70
2022/12/04 01:48:45;;;;;;;14.97;11.40;;;2.40;99.90;;;;;;5112795;28;20379;-70
2022/12/04 01:51:34;;;;;;;14.45;10.90;;;2.30;99.90;;;;;;5113010;28;20399;-70
2022/12/04 01:54:04;;;;;;;12.73;10.30;;;2.40;99.90;;;;;;5112069;28;20515;-70
2022/12/04 01:56:33;;;;;;;13.48;10.60;;;2.40;99.90;;;;;;5112694;28;20385;-70
2022/12/04 01:59:01;;;;;;;12.13;10.43;;;2.20;99.90;;;;;;5112699;28;20889;-70
2022/12/04 02:01:34;;;;;;;12.25;10.00;;;2.30;99.90;;;;;;5112756;28;20541;-70
2022/12/04 02:04:01;;;;;;;12.95;10.82;;;2.30;99.90;;;;;;5111857;28;20433;-70
2022/12/04 02:06:27;;;;;;;13.83;11.03;;;2.30;99.90;;;;;;5112487;28;20805;-70
2022/12/04 02:08:53;;;;;;;12.97;10.70;;;2.40;99.90;;;;;;5111803;28;20521;-70
2022/12/04 02:11:38;;;;;;;12.45;10.50;;;2.40;99.90;;;;;;5112580;28;20392;-70
2022/12/04 02:14:09;;;;;;;12.10;9.90;;;2.40;99.90;;;;;;5111732;28;20376;-70
2022/12/04 02:16:49;;;;;;;13.38;10.55;;;2.40;99.90;;;;;;5112325;28;20464;-70
2022/12/04 02:19:52;;;;;;;14.75;10.60;;;2.40;99.90;;;;;;5111039;28;20439;-70
2022/12/04 02:22:53;;;;;;;11.23;9.88;;;2.40;99.90;;;;;;5112251;28;20829;-70
2022/12/04 02:25:34;;;;;;;12.55;10.70;;;2.50;99.90;;;;;;5086257;28;20392;-70
2022/12/04 02:28:23;;;;;;;11.75;9.70;;;2.60;99.90;;;;;;5112266;28;20376;-70
2022/12/04 02:30:54;;;;;;;10.95;9.43;;;2.40;99.90;;;;;;5112364;28;20911;-70
2022/12/04 02:33:25;;;;;;;12.63;9.80;;;2.50;99.90;;;;;;5111928;27;20392;-70
2022/12/04 02:36:16;;;;;;;12.13;10.38;;;2.40;99.90;;;;;;5112372;28;20461;-70
2022/12/04 02:38:52;;;;;;;12.85;10.27;;;2.40;99.90;;;;;;5101158;28;20389;-70
2022/12/04 02:41:35;;;;;;;12.05;10.35;;;2.40;99.90;;;;;;5112202;28;20503;-70
2022/12/04 02:44:15;;;;;;;12.35;10.10;;;2.30;99.90;;;;;;5111883;28;20464;-70
2022/12/04 02:46:43;;;;;;;14.05;10.95;;;2.50;99.90;;;;;;5110623;28;20406;-70
2022/12/04 02:49:19;;;;;;;12.40;10.15;;;2.40;99.90;;;;;;5112130;28;20389;-70
2022/12/04 02:51:47;;;;;;;14.15;11.43;;;2.50;99.90;;;;;;5112246;28;20387;-70
2022/12/04 02:54:48;;;;;;;12.75;10.48;;;2.60;99.90;;;;;;5111474;27;20381;-70
2022/12/04 02:57:19;;;;;;;12.65;10.25;;;2.40;99.90;;;;;;5068479;28;20423;-70
2022/12/04 02:59:48;;;;;;;12.40;10.98;;;2.30;99.90;;;;;;5112152;28;20377;-70
2022/12/04 03:02:25;;;;;;;12.73;10.65;;;2.40;99.90;;;;;;5111899;28;20431;-70
2022/12/04 03:04:54;;;;;;;11.95;10.48;;;2.50;99.90;;;;;;5111032;28;20384;-70
2022/12/04 03:07:26;;;;;;;12.38;10.60;;;2.50;99.90;;;;;;5111364;28;20391;-70
2022/12/04 03:10:04;;;;;;;13.00;10.60;;;2.60;99.90;;;;;;5111523;28;20489;-70
2022/12/04 03:12:42;;;;;;;12.52;10.02;;;2.60;99.90;;;;;;5111268;28;20385;-70
2022/12/04 03:15:16;;;;;;;12.25;10.05;;;2.50;99.90;;;;;;5111246;28;20472;-70
2022/12/04 03:17:55;;;;;;;12.52;10.63;;;2.50;99.90;;;;;;5111566;28;20379;-70
2022/12/04 03:20:22;;;;;;;11.77;10.30;;;2.50;99.90;;;;;;5111054;28;20372;-70
2022/12/04 03:22:55;;;;;;;13.33;11.03;;;2.60;99.90;;;;;;5108930;28;20443;-70
2022/12/04 03:25:30;;;;;;;13.05;10.65;;;2.70;99.90;;;;;;5111171;28;20380;-70
2022/12/04 03:28:03;;;;;;;14.90;10.45;;;2.50;99.90;;;;;;5111311;28;20372;-70
2022/12/04 03:30:38;;;;;;;12.50;10.07;;;2.40;99.90;;;;;;5109942;28;20537;-70
2022/12/04 03:33:13;;;;;;;11.88;9.63;;;2.40;99.90;;;;;;5110474;28;20369;-70
2022/12/04 03:35:48;;;;;;;12.85;10.20;;;2.50;99.90;;;;;;5111037;28;20384;-70
2022/12/04 03:38:36;;;;;;;11.93;10.30;;;2.60;99.90;;;;;;5110910;28;20381;-70
2022/12/04 03:41:26;;;;;;;11.95;9.60;;;2.60;99.90;;;;;;5110966;28;20910;-70
2022/12/04 03:44:11;;;;;;;12.07;9.88;;;2.60;99.90;;;;;;5110118;28;20515;-70
2022/12/04 03:46:56;;;;;;;12.30;10.02;;;2.50;99.90;;;;;;5110920;28;20376;-70
2022/12/04 03:49:48;;;;;;;13.13;10.10;;;2.40;99.90;;;;;;5110804;28;20384;-70
2022/12/04 03:52:21;;;;;;;12.50;10.70;;;2.40;99.90;;;;;;5110736;28;20396;-70
2022/12/04 03:54:51;;;;;;;11.73;10.00;;;2.50;99.90;;;;;;5109986;28;20379;-70
2022/12/04 03:57:23;;;;;;;11.52;9.77;;;2.50;99.90;;;;;;5110646;28;20423;-70
2022/12/04 04:00:06;;;;;;;12.50;10.17;;;2.50;99.90;;;;;;5110711;28;20489;-70
2022/12/04 04:02:40;;;;;;;13.38;10.55;;;2.50;99.90;;;;;;5110158;28;20428;-70
2022/12/04 04:05:08;;;;;;;12.43;10.30;;;2.50;99.90;;;;;;5110885;28;20384;-70
2022/12/04 04:07:45;;;;;;;11.70;8.95;;;2.50;99.90;;;;;;5110628;28;20421;-69
2022/12/04 04:10:19;;;;;;;11.75;9.90;;;2.50;99.90;;;;;;5110538;28;20770;-69
2022/12/04 04:24:13;;;;;;;14.05;10.85;;;2.50;99.90;;;;;;5110221;28;20836;-69
2022/12/04 04:24:13;;;;;;;11.70;10.50;;;2.50;99.90;;;;;;5113569;28;20454;-69
2022/12/04 04:26:44;;;;;;;11.13;9.60;;;2.70;99.90;;;;;;5100666;28;20376;-69
2022/12/04 04:29:10;;;;;;;12.15;10.40;;;2.70;99.90;;;;;;5125329;28;20376;-69
2022/12/04 04:31:47;;;;;;;12.32;11.02;;;2.50;99.90;;;;;;5117123;28;20727;-69
2022/12/04 04:34:31;;;;;;;11.95;9.68;;;2.60;99.90;;;;;;5095793;28;20491;-69
2022/12/04 04:37:14;;;;;;;11.95;10.10;;;2.50;99.90;;;;;;5114643;28;20434;-69
2022/12/04 04:40:05;;;;;;;13.85;10.68;;;2.40;99.90;;;;;;5114701;28;20376;-69
2022/12/04 04:42:31;;;;;;;11.85;9.68;;;2.40;99.90;;;;;;5114136;28;20436;-69
2022/12/04 04:45:24;;;;;;;12.20;9.77;;;2.40;99.90;;;;;;5095987;28;20399;-69
2022/12/04 04:48:13;;;;;;;15.75;11.38;;;2.50;99.90;;;;;;5114695;28;20739;-69
2022/12/04 04:50:40;;;;;;;13.55;10.60;;;2.50;99.90;;;;;;5114393;28;20420;-69
2022/12/04 04:53:11;;;;;;;13.75;10.10;;;2.50;99.90;;;;;;5113767;28;20742;-69
2022/12/04 04:55:37;;;;;;;12.07;9.63;;;2.60;99.90;;;;;;5114257;28;20759;-69
2022/12/04 04:58:12;;;;;;;12.20;10.10;;;2.60;99.90;;;;;;5114440;28;20384;-69
2022/12/04 05:00:40;;;;;;;12.02;9.90;;;2.60;99.90;;;;;;5114232;28;20731;-69
2022/12/04 05:03:05;;;;;;;13.30;10.43;;;2.50;99.90;;;;;;5113568;28;20389;-69
2022/12/04 05:05:31;;;;;;;12.37;9.60;;;2.70;99.90;;;;;;5114019;28;20375;-69
2022/12/04 05:07:56;;;;;;;13.07;10.43;;;2.70;99.90;;;;;;5114220;28;20380;-69
2022/12/04 05:10:22;;;;;;;11.90;9.50;;;2.70;99.90;;;;;;5114005;28;20380;-69
2022/12/04 05:12:48;;;;;;;12.68;10.40;;;2.60;99.90;;;;;;5113516;28;20448;-69
2022/12/04 05:15:13;;;;;;;12.93;10.15;;;2.60;99.90;;;;;;5113885;28;20392;-69
2022/12/04 05:17:39;;;;;;;12.30;9.77;;;2.60;99.90;;;;;;5114220;28;20380;-69
2022/12/04 05:20:05;;;;;;;14.00;10.57;;;2.60;99.90;;;;;;5113812;28;20392;-69
2022/12/04 05:22:33;;;;;;;10.90;9.38;;;2.40;99.90;;;;;;5113942;28;20432;-69
2022/12/04 05:24:59;;;;;;;11.65;9.90;;;2.40;99.90;;;;;;5113175;28;20376;-69
2022/12/04 05:27:26;;;;;;;15.03;11.57;;;2.40;99.90;;;;;;5114100;28;20901;-69
2022/12/04 05:29:54;;;;;;;12.98;10.05;;;2.50;99.90;;;;;;5114055;28;20858;-69
2022/12/04 05:32:21;;;;;;;12.73;10.00;;;2.50;99.90;;;;;;5114020;28;20380;-70
2022/12/04 05:34:51;;;;;;;11.50;9.83;;;2.50;99.90;;;;;;5112966;28;20455;-70
2022/12/04 05:37:17;;;;;;;13.32;10.50;;;2.40;99.90;;;;;;5113684;28;20475;-70
2022/12/04 05:39:42;;;;;;;12.95;10.90;;;2.40;99.90;;;;;;5113706;27;20376;-70
2022/12/04 05:42:08;;;;;;;13.87;10.53;;;2.60;99.90;;;;;;5113598;28;20893;-70
2022/12/04 05:44:33;;;;;;;14.10;10.20;;;2.60;99.90;;;;;;5111856;28;20388;-70
2022/12/04 05:46:59;;;;;;;12.03;10.00;;;2.50;99.90;;;;;;5113578;28;20407;-70
2022/12/04 05:49:28;;;;;;;10.93;9.30;;;2.50;99.90;;;;;;5113473;28;20384;-70
2022/12/04 05:51:53;;;;;;;11.33;9.70;;;2.50;99.90;;;;;;5113448;28;20548;-70
2022/12/04 05:54:19;;;;;;;11.83;9.73;;;2.50;99.90;;;;;;5112629;28;20419;-70
2022/12/04 05:56:45;;;;;;;11.27;9.70;;;2.50;99.90;;;;;;5113432;28;20383;-70
2022/12/04 05:59:10;;;;;;;12.37;9.90;;;2.50;99.90;;;;;;5113528;28;20380;-70
2022/12/04 06:01:36;;;;;;;11.07;9.43;;;2.60;99.90;;;;;;5113536;28;20392;-70
2022/12/04 06:04:02;;;;;;;10.43;9.05;;;2.60;99.90;;;;;;5112511;28;20376;-70
2022/12/04 06:06:27;;;;;;;11.55;9.40;;;2.50;99.90;;;;;;5113208;28;20471;-69
2022/12/04 06:08:56;;;;;;;11.60;10.40;;;2.40;99.90;;;;;;5113093;28;20372;-69
2022/12/04 06:11:27;;;;;;;10.63;9.10;;;2.40;99.90;;;;;;5113056;28;20416;-69
2022/12/04 06:13:53;;;;;;;11.33;10.03;;;2.50;99.90;;;;;;5112213;28;20381;-69
2022/12/04 06:16:24;;;;;;;10.95;9.15;;;2.50;99.90;;;;;;5112703;28;20388;-69
2022/12/04 06:18:55;;;;;;;12.95;10.38;;;2.50;99.90;;;;;;5113017;28;20381;-69
2022/12/04 06:21:23;;;;;;;12.55;10.23;;;2.40;99.90;;;;;;5112782;28;20438;-69
2022/12/04 06:23:50;;;;;;;11.90;9.88;;;2.40;99.90;;;;;;5112314;28;20377;-70
2022/12/04 06:26:16;;;;;;;11.35;9.20;;;2.60;99.90;;;;;;5112559;28;20380;-70
2022/12/04 06:28:41;;;;;;;12.20;9.60;;;2.50;99.90;;;;;;5121382;28;20372;-70
2022/12/04 06:31:10;;;;;;;10.13;9.03;;;2.60;99.90;;;;;;5134279;28;20471;-69
2022/12/04 06:33:35;;;;;;;10.25;9.15;;;2.50;99.90;;;;;;5133343;28;20386;-69
2022/12/04 06:36:04;;;;;;;11.90;9.05;;;2.60;99.90;;;;;;5120292;28;20399;-69
2022/12/04 06:38:30;;;;;;;13.57;9.50;;;2.60;99.90;;;;;;5117919;28;20380;-69
2022/12/04 06:40:56;;;;;;;12.93;10.20;;;2.50;99.90;;;;;;5119441;28;20396;-69
2022/12/04 06:43:22;;;;;;;13.68;10.18;;;2.50;99.90;;;;;;5113075;28;20429;-68
2022/12/04 06:45:48;;;;;;;14.20;10.60;;;2.40;99.90;;;;;;5112340;28;20377;-69
2022/12/04 06:48:13;;;;;;;11.35;9.70;;;2.50;99.90;;;;;;5112199;28;20386;-69
2022/12/04 06:50:39;;;;;;;11.30;9.50;;;2.60;99.90;;;;;;5112100;28;20406;-69
2022/12/04 06:53:05;;;;;;;13.73;10.70;;;2.50;99.90;;;;;;5111346;28;20441;-69
2022/12/04 06:55:30;;;;;;;14.10;10.50;;;2.60;99.90;;;;;;5112029;28;20850;-69
2022/12/04 06:57:56;;;;;;;13.27;10.20;;;2.70;99.90;;;;;;5112033;28;20868;-69
2022/12/04 07:00:21;;;;;;;12.93;9.93;;;2.50;99.90;;;;;;5112100;28;20383;-69
2022/12/04 07:02:47;;;;;;;10.50;9.20;;;2.60;99.90;;;;;;5110940;28;20526;-69
2022/12/04 07:05:13;;;;;;;12.70;10.10;;;2.60;99.90;;;;;;5111914;28;20384;-69
2022/12/04 07:07:39;;;;;;;11.23;9.75;;;2.60;99.90;;;;;;5111924;28;20383;-69
2022/12/04 07:10:05;;;;;;;12.88;10.50;;;2.50;99.90;;;;;;5111785;28;20381;-69
2022/12/04 07:12:30;;;;;;;12.40;9.45;;;2.50;99.90;;;;;;5111451;28;20790;-70
2022/12/04 07:14:56;;;;;;;10.87;9.20;;;2.50;99.90;;;;;;5111449;28;20384;-69
2022/12/04 07:17:21;;;;;;;12.63;9.77;;;2.50;99.90;;;;;;5112091;28;20382;-69
2022/12/04 07:19:47;;;;;;;12.87;10.13;;;2.50;99.90;;;;;;5098089;28;20391;-69
2022/12/04 07:22:12;;;;;;;12.77;10.70;;;2.40;99.90;;;;;;5093715;28;20428;-68
2022/12/04 07:24:38;;;;;;;13.32;10.95;;;2.30;99.90;;;;;;5111508;28;20396;-68
2022/12/04 07:27:04;;;;;;;12.88;10.75;;;2.40;99.90;;;;;;5106801;28;20900;-69
2022/12/04 07:29:29;;;;;;;12.40;9.75;;;2.50;99.90;;;;;;5125558;28;20423;-69
2022/12/04 07:31:55;;;;;;;13.50;10.88;;;2.70;99.90;;;;;;5115297;28;20388;-69
2022/12/04 07:34:21;;;;;;;13.00;11.00;;;2.50;99.90;;;;;;5109898;28;20393;-69
2022/12/04 07:36:46;;;;;;;14.30;10.80;;;2.40;99.90;;;;;;5111140;28;20391;-69
2022/12/04 07:39:12;;;;;;;12.20;10.67;;;2.40;99.90;;;;;;5111265;28;20388;-69
2022/12/04 07:41:38;;;;;;;13.47;10.70;;;2.50;99.90;;;;;;5109916;28;20409;-69
2022/12/04 07:44:04;;;;;;;12.43;10.70;;;2.60;99.90;;;;;;5105986;28;20376;-69
2022/12/04 07:46:30;;;;;;;13.70;10.88;;;2.60;99.90;;;;;;5109255;28;20801;-69
2022/12/04 07:48:57;;;;;;;13.60;10.90;;;2.70;99.90;;;;;;5110309;28;20455;-69
2022/12/04 07:51:25;;;;;;;14.25;11.35;;;2.60;99.90;;;;;;5105282;28;20380;-69
2022/12/04 07:53:52;;;;;;;12.52;10.50;;;2.80;99.90;;;;;;5104866;28;20382;-69
2022/12/04 07:56:18;;;;;;;12.68;11.00;;;2.80;99.90;;;;;;5087625;28;20386;-69
2022/12/04 07:58:45;;;;;;;14.05;11.98;;;2.80;99.90;;;;;;5089964;28;20431;-68
2022/12/04 08:01:22;;;;;;;14.07;11.70;;;2.80;99.90;;;;;;5090507;28;20764;-67
2022/12/04 08:03:50;;;;;;;13.45;11.35;;;2.70;99.90;;;;;;5090261;28;20469;-68
2022/12/04 08:06:18;;;;;;;13.32;11.27;;;2.80;99.90;;;;;;5090495;28;20378;-67
2022/12/04 08:08:44;;;;;;;13.47;10.87;;;2.80;99.90;;;;;;5097854;28;20374;-68
2022/12/04 08:11:11;;;;;;;12.70;11.07;;;2.90;99.90;;;;;;5117621;27;20894;-67
2022/12/04 08:13:37;;;;;;;13.75;11.20;;;2.90;99.90;;;;;;5116844;27;20817;-68
2022/12/04 08:16:05;;;;;;;12.75;10.10;;;3.00;99.90;;;;;;5109451;28;20386;-68
2022/12/04 08:18:31;;;;;;;11.55;10.35;;;3.00;99.90;;;;;;5109249;28;20384;-68
2022/12/04 08:21:07;;;;;;;12.45;10.55;;;3.00;99.90;;;;;;5117644;28;20532;-68
2022/12/04 08:23:34;;;;;;;11.63;9.50;;;3.00;99.90;;;;;;5116855;28;20396;-67
2022/12/04 08:26:00;;;;;;;11.18;9.77;;;3.10;99.90;;;;;;5120989;28;20372;-68
2022/12/04 08:28:26;;;;;;;11.25;9.43;;;3.00;99.90;;;;;;5130824;28;20736;-68
2022/12/04 08:30:52;;;;;;;13.20;10.50;;;2.90;99.90;;;;;;5111689;28;20414;-67
2022/12/04 08:33:17;;;;;;;13.13;10.68;;;2.80;99.90;;;;;;5098696;28;20376;-67
2022/12/04 08:35:43;;;;;;;12.10;9.85;;;2.80;99.90;;;;;;5117809;28;20374;-68
2022/12/04 08:38:09;;;;;;;11.93;10.07;;;2.80;99.90;;;;;;5117753;28;20419;-67
2022/12/04 08:40:34;;;;;;;12.45;9.98;;;2.70;99.90;;;;;;5117436;28;20471;-68
2022/12/04 08:43:00;;;;;;;11.80;10.02;;;2.80;99.90;;;;;;5116735;28;20380;-68
2022/12/04 08:45:25;;;;;;;13.57;10.93;;;2.80;99.90;;;;;;5099088;28;20379;-67
2022/12/04 08:47:51;;;;;;;13.00;10.77;;;2.80;99.90;;;;;;5116661;28;20426;-68
2022/12/04 08:50:16;;;;;;;14.67;10.93;;;2.80;99.90;;;;;;5117404;28;20486;-68
2022/12/04 08:52:42;;;;;;;13.10;11.03;;;2.90;99.90;;;;;;5116782;28;20392;-68
2022/12/04 08:55:08;;;;;;;12.70;10.97;;;3.10;99.90;;;;;;5120060;28;20414;-68
2022/12/04 08:57:33;;;;;;;12.63;10.43;;;3.00;99.90;;;;;;5123009;28;20468;-69
2022/12/04 08:59:59;;;;;;;12.55;10.23;;;3.00;99.90;;;;;;5117889;28;20453;-68
2022/12/04 09:02:24;;;;;;;14.55;11.63;;;2.90;99.90;;;;;;5116813;28;20388;-68
2022/12/04 09:04:50;;;;;;;14.10;11.85;;;3.10;99.90;;;;;;5116956;28;20385;-68
2022/12/04 09:07:15;;;;;;;13.13;10.98;;;2.90;99.90;;;;;;5117210;28;20400;-68
2022/12/04 09:09:41;;;;;;;13.88;11.50;;;2.70;99.90;;;;;;5117130;28;20433;-68
2022/12/04 09:12:07;;;;;;;14.65;11.70;;;2.70;99.90;;;;;;5117168;28;20470;-68
2022/12/04 09:14:32;;;;;;;14.07;11.10;;;2.90;99.90;;;;;;5116620;28;20380;-68
2022/12/04 09:16:58;;;;;;;13.52;10.50;;;3.00;99.90;;;;;;5116953;28;20433;-68
2022/12/04 09:19:23;;;;;;;12.75;10.57;;;3.10;99.90;;;;;;5105851;28;20900;-68
2022/12/04 09:21:49;;;;;;;11.93;10.50;;;3.20;99.90;;;;;;5104562;28;20401;-68
2022/12/04 09:24:14;;;;;;;14.30;11.77;;;3.30;99.90;;;;;;5086260;28;20395;-68
2022/12/04 09:26:41;;;;;;;13.40;11.27;;;3.20;99.90;;;;;;5113656;28;20380;-68
2022/12/04 09:29:06;;;;;;;12.98;11.40;;;3.20;99.90;;;;;;5113312;28;20389;-69
2022/12/04 09:31:33;;;;;;;14.20;11.00;;;3.20;99.90;;;;;;5103149;28;20395;-68
2022/12/04 09:33:59;;;;;;;13.70;11.60;;;3.30;99.90;;;;;;5110825;28;20529;-68
2022/12/04 09:36:24;;;;;;;13.20;11.73;;;3.20;99.90;;;;;;5094268;28;20397;-68
2022/12/04 09:38:52;;;;;;;13.60;10.98;;;3.20;99.90;;;;;;5113293;28;20862;-68
2022/12/04 09:41:47;;;;;;;13.60;11.50;;;3.30;99.90;;;;;;5113282;28;20461;-68
2022/12/04 09:44:28;;;;;;;13.18;11.77;;;3.30;99.90;;;;;;5112580;28;20758;-68
2022/12/04 09:47:24;;;;;;;13.95;11.52;;;3.30;99.90;;;;;;5113270;28;20375;-68
2022/12/04 09:49:59;;;;;;;14.30;11.70;;;3.40;99.90;;;;;;5078332;28;20792;-68
2022/12/04 09:52:37;;;;;;;13.35;11.40;;;3.50;99.90;;;;;;5113112;28;20621;-68
2022/12/04 09:55:09;;;;;;;13.20;11.32;;;3.60;99.90;;;;;;5113484;28;20487;-68
2022/12/04 09:57:40;;;;;;;14.55;11.48;;;3.60;99.90;;;;;;5113131;28;20452;-68
2022/12/04 10:00:10;;;;;;;14.90;12.10;;;3.50;99.90;;;;;;5113267;28;20416;-68
2022/12/04 10:02:38;;;;;;;13.82;11.20;;;3.70;99.90;;;;;;5078034;28;20408;-68
2022/12/04 10:05:14;;;;;;;15.80;11.70;;;3.90;99.90;;;;;;5112804;28;20518;-68
2022/12/04 10:08:19;;;;;;;16.47;11.97;;;3.90;99.90;;;;;;5113265;28;20384;-68
2022/12/04 10:10:59;;;;;;;14.75;11.93;;;3.90;99.90;;;;;;5110683;28;20388;-68
2022/12/04 10:13:33;;;;;;;14.15;12.05;;;3.60;99.90;;;;;;5111951;28;20388;-68
2022/12/04 10:16:31;;;;;;;13.57;11.70;;;3.50;99.90;;;;;;5094584;28;20419;-68
2022/12/04 10:19:02;;;;;;;16.10;12.75;;;3.50;99.90;;;;;;5092270;28;20472;-68
2022/12/04 10:21:41;;;;;;;14.05;12.20;;;3.40;99.90;;;;;;5103687;28;20412;-68
2022/12/04 10:24:21;;;;;;;14.30;12.40;;;3.40;99.90;;;;;;5111800;28;20388;-68
2022/12/04 10:26:47;;;;;;;14.60;12.73;;;3.50;99.90;;;;;;5112628;28;20885;-67
2022/12/04 10:29:28;;;;;;;15.45;13.43;;;3.50;99.90;;;;;;5112409;28;20372;-68
2022/12/04 10:31:56;;;;;;;15.68;12.40;;;3.40;99.90;;;;;;5112066;28;20462;-68
2022/12/04 10:34:29;;;;;;;14.75;12.93;;;3.60;99.90;;;;;;5111563;28;20404;-68
2022/12/04 10:37:05;;;;;;;14.40;12.90;;;3.50;99.90;;;;;;5094133;28;20886;-68
2022/12/04 10:39:54;;;;;;;15.68;13.40;;;3.50;99.90;;;;;;5112455;28;20411;-67
2022/12/04 10:42:29;;;;;;;15.00;12.82;;;3.50;99.90;;;;;;5112235;28;20404;-68
2022/12/04 10:44:55;;;;;;;16.17;13.48;;;3.40;99.90;;;;;;5093566;28;20380;-66
2022/12/04 10:47:23;;;;;;;16.15;13.80;;;3.40;99.90;;;;;;5101253;28;20936;-67
2022/12/04 10:49:59;;;;;;;15.53;13.00;;;3.40;99.90;;;;;;5108043;28;20567;-68
2022/12/04 10:52:25;;;;;;;17.23;13.75;;;3.10;99.90;;;;;;5092065;28;20396;-67
2022/12/04 10:54:58;;;;;;;16.85;14.18;;;3.40;99.90;;;;;;5104730;28;20484;-68
2022/12/04 10:57:44;;;;;;;14.90;13.00;;;3.40;99.90;;;;;;5100712;28;20414;-67
2022/12/04 11:00:23;;;;;;;15.55;12.90;;;3.40;99.90;;;;;;5102579;28;20411;-67
2022/12/04 11:02:50;;;;;;;15.43;13.67;;;3.00;99.90;;;;;;5094379;28;20770;-67
2022/12/04 11:05:34;;;;;;;17.55;13.88;;;3.10;99.90;;;;;;5111240;28;20426;-68
2022/12/04 11:08:03;;;;;;;16.63;13.70;;;3.00;99.90;;;;;;5110971;28;20571;-68
2022/12/04 11:10:42;;;;;;;14.77;12.88;;;3.30;99.90;;;;;;5111187;28;20384;-68
2022/12/04 11:13:16;;;;;;;15.05;13.25;;;3.30;99.90;;;;;;5108410;28;20372;-68
2022/12/04 11:15:48;;;;;;;18.33;14.07;;;3.20;99.90;;;;;;5111067;28;20388;-69
2022/12/04 11:18:24;;;;;;;15.95;13.90;;;3.30;99.90;;;;;;5110329;28;20465;-67
2022/12/04 11:21:03;;;;;;;16.38;14.18;;;3.00;99.90;;;;;;5106445;28;20376;-67
2022/12/04 11:23:33;;;;;;;17.65;14.77;;;3.10;99.90;;;;;;5109691;28;20451;-68
2022/12/04 11:25:59;;;;;;;18.00;14.38;;;3.20;99.90;;;;;;5110917;28;20378;-68
2022/12/04 11:28:29;;;;;;;18.83;15.73;;;3.10;99.90;;;;;;5110939;28;20372;-68
2022/12/04 11:31:01;;;;;;;18.48;14.95;;;3.10;99.90;;;;;;5111083;28;20380;-68
2022/12/04 11:33:32;;;;;;;18.30;15.77;;;2.90;99.90;;;;;;5107808;28;20781;-68
2022/12/04 11:36:01;;;;;;;19.70;15.65;;;3.00;99.90;;;;;;5110819;28;20364;-68
2022/12/04 11:38:28;;;;;;;19.20;16.05;;;3.10;99.90;;;;;;5107264;28;20434;-68
2022/12/04 11:40:55;;;;;;;21.67;16.38;;;3.20;99.90;;;;;;5110451;28;20383;-68
2022/12/04 11:43:25;;;;;;;17.90;15.18;;;3.20;99.90;;;;;;5109183;28;20404;-68
2022/12/04 11:46:02;;;;;;;19.50;15.90;;;3.00;99.90;;;;;;5110644;28;20381;-68
2022/12/04 11:48:29;;;;;;;20.17;15.93;;;3.00;99.90;;;;;;5108290;28;20878;-68
2022/12/04 11:51:06;;;;;;;19.67;16.10;;;2.90;99.90;;;;;;5110596;28;20400;-68
2022/12/04 11:53:54;;;;;;;19.60;15.30;;;3.10;99.90;;;;;;5108387;28;20874;-68
2022/12/04 11:56:33;;;;;;;20.92;15.95;;;2.90;99.90;;;;;;5109966;28;20380;-68
2022/12/04 11:59:26;;;;;;;21.30;16.20;;;3.10;99.90;;;;;;5111067;28;20384;-68
2022/12/04 12:02:18;;;;;;;20.10;15.37;;;3.10;99.90;;;;;;5111081;28;20400;-68
2022/12/04 12:05:25;;;;;;;20.73;16.23;;;3.00;99.90;;;;;;5109262;28;20388;-68
2022/12/04 12:08:05;;;;;;;18.30;14.35;;;2.80;99.90;;;;;;5110077;28;20403;-68
2022/12/04 12:11:09;;;;;;;23.02;17.02;;;3.00;99.90;;;;;;5110619;28;20395;-68
2022/12/04 12:14:01;;;;;;;19.10;14.52;;;3.00;99.90;;;;;;5078670;28;20395;-68
2022/12/04 12:17:09;;;;;;;19.05;15.10;;;3.20;99.90;;;;;;5110706;28;20387;-68
2022/12/04 12:19:47;;;;;;;20.03;15.70;;;2.90;99.90;;;;;;5110453;28;20387;-69
2022/12/04 12:22:54;;;;;;;21.77;15.88;;;3.00;99.90;;;;;;5110913;28;20429;-68
2022/12/04 12:25:40;;;;;;;19.00;15.63;;;3.10;99.90;;;;;;5110675;28;20464;-68
2022/12/04 12:28:15;;;;;;;21.42;17.02;;;2.90;99.90;;;;;;5111429;28;20394;-69
2022/12/04 12:31:02;;;;;;;20.53;15.23;;;2.90;99.90;;;;;;5110069;28;20380;-69
2022/12/04 12:33:33;;;;;;;20.45;16.05;;;2.90;99.90;;;;;;5106789;28;20372;-69
2022/12/04 12:36:08;;;;;;;21.27;16.02;;;3.00;99.90;;;;;;5109363;28;20746;-70
2022/12/04 12:38:47;;;;;;;19.02;16.00;;;3.00;99.90;;;;;;5110242;28;20411;-69
2022/12/04 12:41:17;;;;;;;21.95;15.65;;;3.00;99.90;;;;;;5110309;28;20415;-69
2022/12/04 12:43:48;;;;;;;18.00;14.80;;;3.10;99.90;;;;;;5109566;28;20986;-69
2022/12/04 12:46:35;;;;;;;19.90;15.60;;;3.10;99.90;;;;;;5109537;28;20383;-69
2022/12/04 12:49:08;;;;;;;17.67;15.05;;;3.10;99.90;;;;;;5110223;28;20394;-68
2022/12/04 12:51:49;;;;;;;20.00;14.85;;;3.20;99.90;;;;;;5093733;28;20396;-69
2022/12/04 12:54:20;;;;;;;17.50;14.60;;;3.10;99.90;;;;;;5111813;28;20487;-69
2022/12/04 12:56:52;;;;;;;16.48;13.45;;;3.10;99.90;;;;;;5113369;28;20391;-69
2022/12/04 12:59:22;;;;;;;19.65;15.30;;;3.10;99.90;;;;;;5113804;28;20388;-69
2022/12/04 13:02:01;;;;;;;17.70;14.75;;;3.10;99.90;;;;;;5113883;28;20450;-69
2022/12/04 13:04:37;;;;;;;19.48;14.88;;;2.90;99.90;;;;;;5113165;28;20383;-70
2022/12/04 13:07:28;;;;;;;21.13;15.40;;;2.90;99.90;;;;;;5113338;28;20383;-70
2022/12/04 13:09:56;;;;;;;18.48;14.10;;;2.90;99.90;;;;;;5113663;28;21021;-69